Time;durP1;ratioP1;P1;durP2;ratioP2;P2;SDS_P1;SDS_P2;PMS_P1;PMS_P2;Temp;Humidity;BMP_temperature;BMP_pressure;BME280_temperature;BME280_humidity;BME280_pressure;Samples;Min_cycle;Max_cycle;Signal;HPM_P1;HPM_P2
2023/07/24 00:01:32;;;;;;;7.95;5.07;;;;;;;-144.32;100.00;68061.97;10452786;28;20041;-78
2023/07/24 00:06:32;;;;;;;9.23;5.38;;;;;;;-144.32;100.00;68061.97;10451808;28;20112;-77
2023/07/24 00:11:33;;;;;;;9.13;6.18;;;;;;;-144.32;100.00;68061.97;10456649;28;20052;-77
2023/07/24 00:16:33;;;;;;;7.93;5.57;;;;;;;-144.32;100.00;68061.97;10457340;28;20051;-77
2023/07/24 00:21:34;;;;;;;9.00;6.15;;;;;;;-144.32;100.00;68061.97;10454679;28;20037;-76
2023/07/24 00:26:34;;;;;;;8.63;6.18;;;;;;;-144.32;100.00;68061.97;10450405;28;20158;-79
2023/07/24 00:31:35;;;;;;;9.80;5.97;;;;;;;-144.32;100.00;68061.97;10452257;28;20052;-78
2023/07/24 00:36:37;;;;;;;8.85;5.50;;;;;;;-144.32;100.00;68061.97;10452520;28;20120;-77
2023/07/24 00:41:37;;;;;;;9.20;6.13;;;;;;;-144.32;100.00;68061.97;10453636;28;20044;-77
2023/07/24 00:46:38;;;;;;;8.95;5.85;;;;;;;-144.32;100.00;68061.97;10456903;28;20512;-78
2023/07/24 00:51:39;;;;;;;9.10;5.50;;;;;;;-144.32;100.00;68061.97;10420927;28;20472;-74
2023/07/24 00:56:40;;;;;;;10.00;6.28;;;;;;;-144.32;100.00;68061.97;10436563;28;20048;-75
2023/07/24 01:01:42;;;;;;;10.10;6.22;;;;;;;-144.32;100.00;68061.97;10451845;28;20044;-74
2023/07/24 01:06:42;;;;;;;11.32;6.53;;;;;;;-144.32;100.00;68061.97;10436399;28;20669;-75
2023/07/24 01:11:48;;;;;;;10.80;6.25;;;;;;;-144.32;100.00;68061.97;10450761;28;20041;-74
2023/07/24 01:16:50;;;;;;;11.15;6.60;;;;;;;-144.32;100.00;68061.97;10453818;28;20084;-74
2023/07/24 01:22:29;;;;;;;11.10;6.40;;;;;;;-144.32;100.00;68061.97;10436553;28;20040;-74
2023/07/24 01:27:29;;;;;;;10.60;6.55;;;;;;;-144.32;100.00;68061.97;10447097;28;20072;-74
2023/07/24 01:32:30;;;;;;;12.82;6.80;;;;;;;-144.32;100.00;68061.97;10435053;28;20041;-74
2023/07/24 01:37:31;;;;;;;11.57;7.68;;;;;;;-144.32;100.00;68061.97;10450378;28;20040;-75
2023/07/24 01:42:33;;;;;;;12.75;7.65;;;;;;;-144.32;100.00;68061.97;10447875;28;20131;-75
2023/07/24 01:47:33;;;;;;;12.52;7.55;;;;;;;-144.32;100.00;68061.97;10454454;28;20044;-75
2023/07/24 01:52:34;;;;;;;10.85;7.45;;;;;;;-144.32;100.00;68061.97;10433538;28;20037;-75
2023/07/24 01:57:34;;;;;;;12.60;7.63;;;;;;;-144.32;100.00;68061.97;10445001;28;20044;-75
2023/07/24 02:02:35;;;;;;;11.85;7.18;;;;;;;-144.32;100.00;68061.97;10430251;28;20722;-76
2023/07/24 02:07:35;;;;;;;11.18;7.38;;;;;;;-144.32;100.00;68061.97;10448211;28;20120;-75
2023/07/24 02:12:36;;;;;;;11.00;6.38;;;;;;;-144.32;100.00;68061.97;10430223;28;21121;-76
2023/07/24 02:17:37;;;;;;;10.05;7.20;;;;;;;-144.32;100.00;68061.97;10435014;28;20041;-74
2023/07/24 02:22:37;;;;;;;10.43;6.53;;;;;;;-144.32;100.00;68061.97;10448752;28;20480;-76
2023/07/24 02:27:40;;;;;;;9.30;6.45;;;;;;;-144.32;100.00;68061.97;10421351;28;20172;-76
2023/07/24 02:32:41;;;;;;;10.85;6.63;;;;;;;-144.32;100.00;68061.97;10448666;28;20049;-75
2023/07/24 02:37:42;;;;;;;12.27;7.13;;;;;;;-144.32;100.00;68061.97;10432825;28;20045;-74
2023/07/24 02:42:45;;;;;;;;;;;;;;;-144.32;100.00;68061.97;10429800;28;20044;-75
2023/07/24 02:47:46;;;;;;;11.55;7.43;;;;;;;-144.32;100.00;68061.97;10434119;28;19921;-74
2023/07/24 02:52:48;;;;;;;12.00;7.40;;;;;;;-144.32;100.00;68061.97;10439893;28;20046;-74
2023/07/24 02:57:48;;;;;;;10.38;6.85;;;;;;;-144.32;100.00;68061.97;10432530;28;20049;-74
2023/07/24 03:02:49;;;;;;;11.50;7.68;;;;;;;-144.32;100.00;68061.97;10444272;28;20120;-74
2023/07/24 03:07:49;;;;;;;13.23;8.90;;;;;;;-144.32;100.00;68061.97;10425828;28;20037;-74
2023/07/24 03:12:50;;;;;;;13.30;8.95;;;;;;;-144.32;100.00;68061.97;10425477;28;20079;-75
2023/07/24 03:17:50;;;;;;;15.38;9.50;;;;;;;-144.32;100.00;68061.97;10447330;28;20044;-73
2023/07/24 03:22:51;;;;;;;14.07;8.90;;;;;;;-144.32;100.00;68061.97;10438051;28;20356;-74
2023/07/24 03:27:51;;;;;;;13.52;8.93;;;;;;;-144.32;100.00;68061.97;10442603;28;20056;-73
2023/07/24 03:32:52;;;;;;;13.80;8.07;;;;;;;-144.32;100.00;68061.97;10447749;28;20464;-75
2023/07/24 03:37:52;;;;;;;12.15;8.15;;;;;;;-144.32;100.00;68061.97;10455172;28;20041;-77
2023/07/24 03:42:52;;;;;;;14.93;8.95;;;;;;;-144.32;100.00;68061.97;10441516;28;20107;-75
2023/07/24 03:47:53;;;;;;;15.77;9.50;;;;;;;-144.32;100.00;68061.97;10457058;28;20048;-75
2023/07/24 03:52:53;;;;;;;14.43;8.60;;;;;;;-144.32;100.00;68061.97;10451492;28;20045;-74
2023/07/24 03:57:54;;;;;;;11.50;8.10;;;;;;;-144.32;100.00;68061.97;10452904;28;20051;-76
2023/07/24 04:02:57;;;;;;;13.68;8.57;;;;;;;-144.32;100.00;68061.97;10453795;28;20041;-76
2023/07/24 04:07:58;;;;;;;12.88;8.10;;;;;;;-144.32;100.00;68061.97;10453543;28;20043;-77
2023/07/24 04:12:58;;;;;;;13.52;8.13;;;;;;;-144.32;100.00;68061.97;10453927;28;20794;-75
2023/07/24 04:17:59;;;;;;;15.23;9.25;;;;;;;-144.32;100.00;68061.97;10454048;28;20041;-74
2023/07/24 04:22:59;;;;;;;13.95;9.13;;;;;;;-144.32;100.00;68061.97;10461047;28;20072;-76
2023/07/24 04:28:00;;;;;;;13.73;9.23;;;;;;;-144.32;100.00;68061.97;10452197;28;20033;-76
2023/07/24 04:33:00;;;;;;;12.52;8.02;;;;;;;-144.32;100.00;68061.97;10450570;28;20033;-76
2023/07/24 04:38:01;;;;;;;13.27;8.45;;;;;;;-144.32;100.00;68061.97;10438021;28;21033;-76
2023/07/24 04:43:01;;;;;;;11.77;8.30;;;;;;;-144.32;100.00;68061.97;10451861;28;20571;-78
2023/07/24 04:48:04;;;;;;;13.27;8.55;;;;;;;-144.32;100.00;68061.97;10453159;28;20051;-77
2023/07/24 04:53:04;;;;;;;12.65;8.85;;;;;;;-144.32;100.00;68061.97;10451405;28;20048;-76
2023/07/24 04:58:05;;;;;;;11.30;7.63;;;;;;;-144.32;100.00;68061.97;10453392;28;20052;-76
2023/07/24 05:03:08;;;;;;;16.27;9.32;;;;;;;-144.32;100.00;68061.97;10433671;28;20114;-75
2023/07/24 05:08:08;;;;;;;12.57;8.55;;;;;;;-144.32;100.00;68061.97;10461025;28;20506;-81
2023/07/24 05:13:09;;;;;;;13.50;8.85;;;;;;;-144.32;100.00;68061.97;10439610;28;20052;-81
2023/07/24 05:18:09;;;;;;;14.35;9.50;;;;;;;-144.32;100.00;68061.97;10434575;28;20041;-75
2023/07/24 05:23:09;;;;;;;13.52;9.30;;;;;;;-144.32;100.00;68061.97;10444380;28;20051;-78
2023/07/24 05:28:10;;;;;;;12.48;8.80;;;;;;;-144.32;100.00;68061.97;10447601;28;20593;-80
2023/07/24 05:33:10;;;;;;;16.23;9.85;;;;;;;-144.32;100.00;68061.97;10445290;28;20131;-86
2023/07/24 05:38:11;;;;;;;14.52;8.93;;;;;;;-144.32;100.00;68061.97;10469146;28;20699;-80
2023/07/24 05:43:11;;;;;;;14.77;9.60;;;;;;;-144.32;100.00;68061.97;10462701;28;20075;-76
2023/07/24 05:48:12;;;;;;;13.40;8.25;;;;;;;-144.32;100.00;68061.97;11187022;22;20033;-75
2023/07/24 05:58:38;;;;;;;11.77;8.10;;;;;;;-144.32;100.00;68061.97;11024579;23;20094;-79
2023/07/24 06:03:39;;;;;;;15.43;9.07;;;;;;;-144.32;100.00;68061.97;10328285;28;20042;-80
2023/07/24 06:08:39;;;;;;;12.60;8.18;;;;;;;-144.32;100.00;68061.97;10330737;28;20038;-79
2023/07/24 06:13:40;;;;;;;14.77;8.82;;;;;;;-144.32;100.00;68061.97;10308899;28;20045;-78
2023/07/24 06:18:43;;;;;;;12.10;8.70;;;;;;;-144.32;100.00;68061.97;10316233;28;20058;-75
2023/07/24 06:23:44;;;;;;;14.40;9.13;;;;;;;-144.32;100.00;68061.97;10315914;28;20035;-80
2023/07/24 06:28:44;;;;;;;12.93;8.48;;;;;;;-144.32;100.00;68061.97;10297002;28;20095;-80
2023/07/24 06:33:44;;;;;;;13.70;8.73;;;;;;;-144.32;100.00;68061.97;10304447;28;20046;-80
2023/07/24 06:38:47;;;;;;;11.05;8.05;;;;;;;-144.32;100.00;68061.97;10313765;28;20050;-78
2023/07/24 06:43:47;;;;;;;13.07;8.55;;;;;;;-144.32;100.00;68061.97;10311637;28;20050;-77
2023/07/24 06:48:48;;;;;;;12.32;7.85;;;;;;;-144.32;100.00;68061.97;10285689;28;20506;-76
2023/07/24 06:53:48;;;;;;;11.40;8.10;;;;;;;-144.32;100.00;68061.97;10287470;28;20042;-78
2023/07/24 06:58:49;;;;;;;13.48;8.30;;;;;;;-144.32;100.00;68061.97;10261024;28;20058;-76
2023/07/24 07:03:49;;;;;;;12.05;7.63;;;;;;;-144.32;100.00;68061.97;10280211;28;20049;-82
2023/07/24 07:08:50;;;;;;;10.15;7.15;;;;;;;-144.32;100.00;68061.97;10290712;28;20146;-77
2023/07/24 07:13:50;;;;;;;11.77;8.20;;;;;;;-144.32;100.00;68061.97;10307609;28;20125;-77
2023/07/24 07:18:51;;;;;;;13.63;8.70;;;;;;;-144.32;100.00;68061.97;10308276;28;20040;-75
2023/07/24 07:23:53;;;;;;;10.82;7.80;;;;;;;-144.32;100.00;68061.97;10328924;28;20026;-74
2023/07/24 07:28:54;;;;;;;14.32;7.80;;;;;;;-144.32;100.00;68061.97;10289252;28;20050;-74
2023/07/24 07:33:54;;;;;;;12.80;8.25;;;;;;;-144.32;100.00;68061.97;10304984;28;20061;-77
2023/07/24 07:38:55;;;;;;;11.13;7.88;;;;;;;-144.32;100.00;68061.97;10298448;28;20046;-80
2023/07/24 07:43:55;;;;;;;13.82;8.60;;;;;;;-144.32;100.00;68061.97;10289786;28;20053;-77
2023/07/24 07:48:56;;;;;;;13.10;7.63;;;;;;;-144.32;100.00;68061.97;10296160;28;20106;-80
2023/07/24 07:53:56;;;;;;;12.90;8.85;;;;;;;-144.32;100.00;68061.97;10271323;28;20445;-80
2023/07/24 07:58:57;;;;;;;12.50;8.32;;;;;;;-144.32;100.00;68061.97;10295030;28;20043;-78
2023/07/24 08:03:57;;;;;;;15.07;8.68;;;;;;;-144.32;100.00;68061.97;10289067;28;20041;-77
2023/07/24 08:08:58;;;;;;;11.38;8.10;;;;;;;-144.32;100.00;68061.97;10277587;28;20507;-75
2023/07/24 08:13:58;;;;;;;12.38;8.43;;;;;;;-144.32;100.00;68061.97;10332184;28;20042;-75
2023/07/24 08:18:59;;;;;;;15.40;9.00;;;;;;;-144.32;100.00;68061.97;10293227;28;20073;-79
2023/07/24 08:24:01;;;;;;;18.00;9.98;;;;;;;-144.32;100.00;68061.97;10289432;28;20049;-81
2023/07/24 08:29:02;;;;;;;13.02;8.70;;;;;;;-144.32;100.00;68061.97;10279505;28;20043;-80
2023/07/24 08:34:02;;;;;;;11.95;7.72;;;;;;;-144.32;100.00;68061.97;10271321;28;20060;-77
2023/07/24 08:39:03;;;;;;;13.75;8.77;;;;;;;-144.32;100.00;68061.97;10273168;28;20055;-79
2023/07/24 08:44:06;;;;;;;14.20;9.15;;;;;;;-144.32;100.00;68061.97;10256246;28;20498;-77
2023/07/24 08:49:12;;;;;;;60.63;18.70;;;;;;;-144.32;100.00;68061.97;10283380;28;20487;-78
2023/07/24 08:54:13;;;;;;;16.08;9.05;;;;;;;-144.32;100.00;68061.97;10285361;28;20042;-80
2023/07/24 08:59:14;;;;;;;38.83;14.93;;;;;;;-144.32;100.00;68061.97;10283556;28;20046;-80
2023/07/24 09:04:14;;;;;;;12.90;8.75;;;;;;;-144.32;100.00;68061.97;10285753;28;20070;-81
2023/07/24 09:09:15;;;;;;;12.55;8.68;;;;;;;-144.32;100.00;68061.97;10290482;28;20053;-84
2023/07/24 09:14:32;;;;;;;12.40;8.35;;;;;;;-144.32;100.00;68061.97;10300023;28;20054;-84
2023/07/24 09:19:32;;;;;;;14.40;8.90;;;;;;;-144.32;100.00;68061.97;10289945;28;20081;-81
2023/07/24 09:24:33;;;;;;;44.00;16.80;;;;;;;-144.32;100.00;68061.97;10282408;28;20077;-78
2023/07/24 09:29:35;;;;;;;13.32;8.60;;;;;;;-144.32;100.00;68061.97;10292574;28;20049;-79
2023/07/24 09:34:42;;;;;;;13.13;8.77;;;;;;;-144.32;100.00;68061.97;10287980;28;20068;-81
2023/07/24 09:39:48;;;;;;;17.20;9.45;;;;;;;-144.32;100.00;68061.97;10295973;28;20054;-79
2023/07/24 09:44:49;;;;;;;15.95;9.05;;;;;;;-144.32;100.00;68061.97;10279821;28;20041;-76
2023/07/24 09:49:52;;;;;;;11.48;8.20;;;;;;;-144.32;100.00;68061.97;10299200;28;20040;-79
2023/07/24 09:54:59;;;;;;;12.35;8.13;;;;;;;-144.32;100.00;68061.97;10301007;28;20048;-80
2023/07/24 10:00:00;;;;;;;10.98;7.28;;;;;;;-144.32;100.00;68061.97;10499104;22;20057;-74
2023/07/24 10:05:05;;;;;;;13.77;7.72;;;;;;;-144.32;100.00;68061.97;10362511;28;20046;-77
2023/07/24 10:10:06;;;;;;;11.52;8.23;;;;;;;-144.32;100.00;68061.97;10345503;28;20098;-82
2023/07/24 10:15:10;;;;;;;13.18;8.07;;;;;;;-144.32;100.00;68061.97;10355087;28;20023;-73
2023/07/24 10:20:11;;;;;;;11.10;7.78;;;;;;;-144.32;100.00;68061.97;10354635;28;20051;-74
2023/07/24 10:25:12;;;;;;;10.57;7.40;;;;;;;-144.32;100.00;68061.97;10329538;28;20062;-75
2023/07/24 10:30:13;;;;;;;11.65;7.70;;;;;;;-144.32;100.00;68061.97;10313210;28;20088;-77
2023/07/24 10:35:13;;;;;;;12.60;8.13;;;;;;;-144.32;100.00;68061.97;10316596;28;20042;-79
2023/07/24 10:40:21;;;;;;;11.65;7.47;;;;;;;-144.32;100.00;68061.97;10303586;28;20077;-77
2023/07/24 10:45:21;;;;;;;11.13;7.68;;;;;;;-144.32;100.00;68061.97;10310864;28;20046;-75
2023/07/24 10:50:22;;;;;;;11.40;7.47;;;;;;;-144.32;100.00;68061.97;10323206;28;20057;-75
2023/07/24 10:55:24;;;;;;;10.10;6.90;;;;;;;-144.32;100.00;68061.97;10330175;28;20034;-75
2023/07/24 11:00:26;;;;;;;12.60;8.68;;;;;;;-144.32;100.00;68061.97;10325409;28;20045;-79
2023/07/24 11:05:27;;;;;;;12.80;8.13;;;;;;;-144.32;100.00;68061.97;10311195;28;20049;-76
2023/07/24 11:10:30;;;;;;;9.80;7.47;;;;;;;-144.32;100.00;68061.97;10290595;28;20049;-73
2023/07/24 11:15:30;;;;;;;12.05;7.28;;;;;;;-144.32;100.00;68061.97;10304684;28;20495;-76
2023/07/24 11:20:31;;;;;;;12.35;8.02;;;;;;;-144.32;100.00;68061.97;10295973;28;20054;-77
2023/07/24 11:25:32;;;;;;;11.02;7.68;;;;;;;-144.32;100.00;68061.97;10277665;28;20042;-78
2023/07/24 11:30:32;;;;;;;13.38;7.85;;;;;;;-144.32;100.00;68061.97;10306658;28;20088;-79
2023/07/24 11:35:35;;;;;;;10.25;7.72;;;;;;;-144.32;100.00;68061.97;10302592;28;20046;-76
2023/07/24 11:40:39;;;;;;;12.57;9.00;;;;;;;-144.32;100.00;68061.97;10311926;28;20042;-83
2023/07/24 11:45:44;;;;;;;12.68;8.70;;;;;;;-144.32;100.00;68061.97;10315184;28;20043;-85
2023/07/24 11:50:47;;;;;;;13.10;8.60;;;;;;;-144.32;100.00;68061.97;10312102;28;20571;-81
2023/07/24 11:55:49;;;;;;;11.93;8.38;;;;;;;-144.32;100.00;68061.97;10318826;28;20049;-76
2023/07/24 12:00:51;;;;;;;14.27;8.70;;;;;;;-144.32;100.00;68061.97;10313056;28;20042;-82
2023/07/24 12:05:52;;;;;;;12.85;8.95;;;;;;;-144.32;100.00;68061.97;10321124;28;20070;-84
2023/07/24 12:10:53;;;;;;;11.02;8.13;;;;;;;-144.32;100.00;68061.97;10316624;28;20675;-78
2023/07/24 12:15:53;;;;;;;10.68;8.30;;;;;;;-144.32;100.00;68061.97;10327462;28;20049;-78
2023/07/24 12:20:54;;;;;;;11.75;8.88;;;;;;;-144.32;100.00;68061.97;10332444;28;20106;-78
2023/07/24 12:25:54;;;;;;;12.68;8.43;;;;;;;-144.32;100.00;68061.97;10305019;28;20569;-75
2023/07/24 12:30:54;;;;;;;12.23;8.60;;;;;;;-144.32;100.00;68061.97;10349781;28;20049;-79
2023/07/24 12:35:55;;;;;;;11.43;7.70;;;;;;;-144.32;100.00;68061.97;10326862;28;20127;-78
2023/07/24 12:40:55;;;;;;;12.15;8.05;;;;;;;-144.32;100.00;68061.97;10322124;28;20593;-76
2023/07/24 12:45:56;;;;;;;11.45;7.00;;;;;;;-144.32;100.00;68061.97;10305882;28;20112;-76
2023/07/24 12:50:57;;;;;;;9.82;7.63;;;;;;;-144.32;100.00;68061.97;10324015;28;20061;-80
2023/07/24 12:55:58;;;;;;;9.80;7.63;;;;;;;-144.32;100.00;68061.97;10318848;28;20038;-78
2023/07/24 13:00:58;;;;;;;8.68;6.32;;;;;;;-144.32;100.00;68061.97;10315954;28;20039;-78
2023/07/24 13:06:00;;;;;;;7.97;5.97;;;;;;;-144.32;100.00;68061.97;10308496;28;20410;-78
2023/07/24 13:11:00;;;;;;;6.95;5.72;;;;;;;-144.32;100.00;68061.97;10309038;28;20049;-82
2023/07/24 13:16:01;;;;;;;7.13;5.20;;;;;;;-144.32;100.00;68061.97;10311927;28;20050;-75
2023/07/24 13:21:02;;;;;;;8.10;5.13;;;;;;;-144.32;100.00;68061.97;10293481;28;20055;-75
2023/07/24 13:26:02;;;;;;;6.63;5.30;;;;;;;-144.32;100.00;68061.97;10312746;28;20074;-75
2023/07/24 13:31:14;;;;;;;6.70;4.93;;;;;;;-144.32;100.00;68061.97;10311516;28;20043;-76
2023/07/24 13:36:15;;;;;;;6.77;5.53;;;;;;;-144.32;100.00;68061.97;10326960;28;20074;-77
2023/07/24 13:41:16;;;;;;;7.73;5.40;;;;;;;-144.32;100.00;68061.97;10301048;28;20050;-77
2023/07/24 13:46:18;;;;;;;7.20;5.30;;;;;;;-144.32;100.00;68061.97;10312029;28;20038;-77
2023/07/24 13:51:18;;;;;;;5.95;4.90;;;;;;;-144.32;100.00;68061.97;10290994;28;20490;-78
2023/07/24 13:56:19;;;;;;;7.27;5.27;;;;;;;-144.32;100.00;68061.97;10307812;28;20051;-78
2023/07/24 14:01:20;;;;;;;6.57;4.90;;;;;;;-144.32;100.00;68061.97;10307646;28;20038;-76
2023/07/24 14:06:21;;;;;;;;;;;;;;;-144.32;100.00;68061.97;10320103;28;20046;-78
2023/07/24 14:11:22;;;;;;;7.20;4.90;;;;;;;-144.32;100.00;68061.97;10293941;28;19922;-78
2023/07/24 14:16:22;;;;;;;6.87;5.20;;;;;;;-144.32;100.00;68061.97;10312167;28;20042;-75
2023/07/24 14:21:23;;;;;;;5.77;4.73;;;;;;;-144.32;100.00;68061.97;10303238;28;20099;-74
2023/07/24 14:26:23;;;;;;;5.80;4.30;;;;;;;-144.32;100.00;68061.97;10295486;28;20606;-75
2023/07/24 14:31:24;;;;;;;5.75;4.72;;;;;;;-144.32;100.00;68061.97;10288187;28;20112;-75
2023/07/24 14:36:26;;;;;;;5.83;4.67;;;;;;;-144.32;100.00;68061.97;10304583;28;20050;-75
2023/07/24 14:41:27;;;;;;;;;;;;;;;-144.32;100.00;68061.97;10309697;28;20568;-74
2023/07/24 14:46:27;;;;;;;5.00;4.10;;;;;;;-144.32;100.00;68061.97;10293177;28;19925;-76
2023/07/24 14:51:28;;;;;;;5.63;4.43;;;;;;;-144.32;100.00;68061.97;10307650;28;20034;-74
2023/07/24 14:56:31;;;;;;;7.25;4.57;;;;;;;-144.32;100.00;68061.97;10308871;28;20182;-74
2023/07/24 15:01:31;;;;;;;6.38;4.55;;;;;;;-144.32;100.00;68061.97;10306539;28;20172;-74
2023/07/24 15:06:32;;;;;;;5.50;4.27;;;;;;;-144.32;100.00;68061.97;10307463;28;20092;-75
2023/07/24 15:11:32;;;;;;;4.77;3.90;;;;;;;-144.32;100.00;68061.97;10308205;28;20042;-77
2023/07/24 15:16:33;;;;;;;5.83;4.60;;;;;;;-144.32;100.00;68061.97;10289299;28;20062;-76
2023/07/24 15:21:33;;;;;;;5.43;3.93;;;;;;;-144.32;100.00;68061.97;10282943;28;20045;-76
2023/07/24 15:26:34;;;;;;;5.37;4.40;;;;;;;-144.32;100.00;68061.97;10286917;28;20058;-77
2023/07/24 15:31:36;;;;;;;4.13;3.57;;;;;;;-144.32;100.00;68061.97;10300844;28;20050;-75
2023/07/24 15:36:37;;;;;;;4.70;3.85;;;;;;;-144.32;100.00;68061.97;10306877;28;20053;-75
2023/07/24 15:41:40;;;;;;;5.27;3.93;;;;;;;-144.32;100.00;68061.97;10288594;28;20650;-78
2023/07/24 15:46:40;;;;;;;4.90;4.00;;;;;;;-144.32;100.00;68061.97;10303672;28;20046;-75
2023/07/24 15:51:41;;;;;;;5.30;4.20;;;;;;;-144.32;100.00;68061.97;10305818;28;20042;-78
2023/07/24 15:56:42;;;;;;;5.17;3.90;;;;;;;-144.32;100.00;68061.97;10304248;28;20058;-75
2023/07/24 16:01:43;;;;;;;6.43;4.50;;;;;;;-144.32;100.00;68061.97;10305327;28;20137;-77
2023/07/24 16:06:43;;;;;;;6.87;4.60;;;;;;;-144.32;100.00;68061.97;10308211;28;20042;-76
2023/07/24 16:11:44;;;;;;;6.37;4.53;;;;;;;-144.32;100.00;68061.97;10274775;28;20124;-81
2023/07/24 16:16:46;;;;;;;6.53;4.88;;;;;;;-144.32;100.00;68061.97;10306193;28;20053;-79
2023/07/24 16:21:49;;;;;;;7.13;4.97;;;;;;;-144.32;100.00;68061.97;10307484;28;20046;-77
2023/07/24 16:26:50;;;;;;;8.88;6.35;;;;;;;-144.32;100.00;68061.97;10300193;28;20513;-76
2023/07/24 16:31:55;;;;;;;7.05;5.35;;;;;;;-144.32;100.00;68061.97;10292060;28;20050;-79
2023/07/24 16:36:56;;;;;;;7.30;4.70;;;;;;;-144.32;100.00;68061.97;10308179;28;20082;-80
2023/07/24 16:41:57;;;;;;;5.90;4.50;;;;;;;-144.32;100.00;68061.97;10311536;28;20165;-75
2023/07/24 16:46:59;;;;;;;8.02;5.90;;;;;;;-144.32;100.00;68061.97;10310310;28;20038;-75
2023/07/24 16:52:02;;;;;;;7.32;4.93;;;;;;;-144.32;100.00;68061.97;10309968;28;21242;-78
2023/07/24 16:57:05;;;;;;;7.60;5.40;;;;;;;-144.32;100.00;68061.97;10322767;28;20089;-76
2023/07/24 17:02:06;;;;;;;8.32;5.72;;;;;;;-144.32;100.00;68061.97;10316044;28;20053;-75
2023/07/24 17:07:06;;;;;;;7.47;5.60;;;;;;;-144.32;100.00;68061.97;10316266;28;20057;-74
2023/07/24 17:12:07;;;;;;;8.68;5.63;;;;;;;-144.32;100.00;68061.97;10312523;28;20050;-75
2023/07/24 17:17:08;;;;;;;8.18;5.82;;;;;;;-144.32;100.00;68061.97;10311101;28;20145;-77
2023/07/24 17:22:08;;;;;;;8.63;6.13;;;;;;;-144.32;100.00;68061.97;10287249;28;20149;-77
2023/07/24 17:27:09;;;;;;;7.68;5.55;;;;;;;-144.32;100.00;68061.97;10295945;28;20067;-77
2023/07/24 17:32:13;;;;;;;8.27;5.80;;;;;;;-144.32;100.00;68061.97;10330158;28;20042;-79
2023/07/24 17:37:13;;;;;;;17.38;8.07;;;;;;;-144.32;100.00;68061.97;10331113;28;20042;-80
2023/07/24 17:42:14;;;;;;;10.32;6.63;;;;;;;-144.32;100.00;68061.97;10292689;28;20045;-77
2023/07/24 17:47:14;;;;;;;11.18;5.78;;;;;;;-144.32;100.00;68061.97;10304010;28;20116;-83
2023/07/24 17:52:16;;;;;;;10.18;6.63;;;;;;;-144.32;100.00;68061.97;10309477;28;20073;-75
2023/07/24 17:57:16;;;;;;;11.43;6.00;;;;;;;-144.32;100.00;68061.97;10312422;28;20494;-77
2023/07/24 18:02:16;;;;;;;7.75;4.28;;;;;;;-144.32;100.00;68061.97;10313605;28;20157;-80
2023/07/24 18:07:17;;;;;;;5.85;3.58;;;;;;;-144.32;100.00;68061.97;10311971;28;20162;-78
2023/07/24 18:12:17;;;;;;;7.13;3.83;;;;;;;-144.32;100.00;68061.97;10307828;28;20054;-76
2023/07/24 18:17:18;;;;;;;6.30;3.50;;;;;;;-144.32;100.00;68061.97;10317570;28;20035;-81
2023/07/24 18:22:20;;;;;;;4.95;2.80;;;;;;;-144.32;100.00;68061.97;10312033;28;20162;-80
2023/07/24 18:27:21;;;;;;;5.20;2.72;;;;;;;-144.32;100.00;68061.97;10315207;28;20119;-78
2023/07/24 18:32:24;;;;;;;4.57;3.10;;;;;;;-144.32;100.00;68061.97;10317365;28;20034;-75
2023/07/24 18:37:24;;;;;;;5.68;3.03;;;;;;;-144.32;100.00;68061.97;10317256;28;20042;-78
2023/07/24 18:42:25;;;;;;;4.88;3.28;;;;;;;-144.32;100.00;68061.97;10320559;28;20245;-77
2023/07/24 18:47:27;;;;;;;4.65;3.80;;;;;;;-144.32;100.00;68061.97;10313859;28;20046;-77
2023/07/24 18:52:27;;;;;;;4.00;2.50;;;;;;;-144.32;100.00;68061.97;10313077;28;20089;-79
2023/07/24 18:57:28;;;;;;;4.13;3.05;;;;;;;-144.32;100.00;68061.97;10299035;28;20149;-78
2023/07/24 19:02:29;;;;;;;5.97;3.63;;;;;;;-144.32;100.00;68061.97;10331333;28;20121;-79
2023/07/24 19:07:30;;;;;;;3.95;3.03;;;;;;;-144.32;100.00;68061.97;10305730;28;20107;-77
2023/07/24 19:12:32;;;;;;;4.97;3.88;;;;;;;-144.32;100.00;68061.97;10306251;28;20050;-79
2023/07/24 19:17:33;;;;;;;4.75;3.60;;;;;;;-144.32;100.00;68061.97;10328247;28;20042;-79
2023/07/24 19:22:34;;;;;;;6.50;4.03;;;;;;;-144.32;100.00;68061.97;10294243;28;20046;-77
2023/07/24 19:27:34;;;;;;;5.63;3.75;;;;;;;-144.32;100.00;68061.97;10289202;28;20070;-78
2023/07/24 19:32:35;;;;;;;5.88;4.00;;;;;;;-144.32;100.00;68061.97;10306897;28;20780;-78
2023/07/24 19:37:36;;;;;;;4.70;3.72;;;;;;;-144.32;100.00;68061.97;10305506;28;20247;-78
2023/07/24 19:42:36;;;;;;;7.32;5.75;;;;;;;-144.32;100.00;68061.97;10272096;28;20054;-79
2023/07/24 19:47:37;;;;;;;5.45;4.03;;;;;;;-144.32;100.00;68061.97;10285886;28;20034;-78
2023/07/24 19:52:37;;;;;;;7.00;4.35;;;;;;;-144.32;100.00;68061.97;10309985;28;20049;-76
2023/07/24 19:57:38;;;;;;;5.55;4.00;;;;;;;-144.32;100.00;68061.97;10289009;28;20054;-78
2023/07/24 20:02:38;;;;;;;5.65;4.40;;;;;;;-144.32;100.00;68061.97;10308810;28;20046;-78
2023/07/24 20:07:40;;;;;;;6.32;4.22;;;;;;;-144.32;100.00;68061.97;10317823;28;20050;-78
2023/07/24 20:12:41;;;;;;;6.80;4.00;;;;;;;-144.32;100.00;68061.97;10305631;28;20043;-79
2023/07/24 20:17:41;;;;;;;7.68;4.70;;;;;;;-144.32;100.00;68061.97;10305444;28;20054;-76
2023/07/24 20:22:41;;;;;;;6.47;4.65;;;;;;;-144.32;100.00;68061.97;10307224;28;20569;-78
2023/07/24 20:27:43;;;;;;;5.50;4.43;;;;;;;-144.32;100.00;68061.97;10314531;28;20050;-77
2023/07/24 20:32:44;;;;;;;5.30;4.13;;;;;;;-144.32;100.00;68061.97;10297428;28;20061;-77
2023/07/24 20:37:46;;;;;;;7.88;5.03;;;;;;;-144.32;100.00;68061.97;10294891;28;20046;-79
2023/07/24 20:42:47;;;;;;;6.75;4.20;;;;;;;-144.32;100.00;68061.97;10317220;28;20047;-79
2023/07/24 20:47:47;;;;;;;6.70;4.85;;;;;;;-144.32;100.00;68061.97;10303308;28;20045;-80
2023/07/24 20:52:48;;;;;;;6.93;4.90;;;;;;;-144.32;100.00;68061.97;10347547;28;20039;-78
2023/07/24 20:57:48;;;;;;;7.35;4.80;;;;;;;-144.32;100.00;68061.97;10334128;28;20117;-80
2023/07/24 21:02:49;;;;;;;8.32;4.95;;;;;;;-144.32;100.00;68061.97;10320315;28;20050;-77
2023/07/24 21:07:49;;;;;;;6.18;4.40;;;;;;;-144.32;100.00;68061.97;10313349;28;20043;-79
2023/07/24 21:12:51;;;;;;;6.10;4.40;;;;;;;-144.32;100.00;68061.97;10309424;28;20050;-78
2023/07/24 21:17:52;;;;;;;6.30;4.20;;;;;;;-144.32;100.00;68061.97;10308345;28;20045;-79
2023/07/24 21:22:53;;;;;;;5.07;4.15;;;;;;;-144.32;100.00;68061.97;10296857;28;20034;-80
2023/07/24 21:27:53;;;;;;;6.45;4.10;;;;;;;-144.32;100.00;68061.97;10314342;28;20046;-79
2023/07/24 21:32:54;;;;;;;4.93;4.20;;;;;;;-144.32;100.00;68061.97;10315870;28;20133;-78
2023/07/24 21:37:54;;;;;;;7.18;4.50;;;;;;;-144.32;100.00;68061.97;10311277;28;20088;-77
2023/07/24 21:42:54;;;;;;;5.22;4.18;;;;;;;-144.32;100.00;68061.97;10311096;28;20046;-79
2023/07/24 21:47:55;;;;;;;4.18;3.38;;;;;;;-144.32;100.00;68061.97;10295044;28;20042;-78
2023/07/24 21:52:55;;;;;;;6.95;4.10;;;;;;;-144.32;100.00;68061.97;10310338;28;20092;-78
2023/07/24 21:57:56;;;;;;;5.63;3.67;;;;;;;-144.32;100.00;68061.97;10309286;28;20046;-76
2023/07/24 22:02:57;;;;;;;4.10;2.83;;;;;;;-144.32;100.00;68061.97;10286351;28;20568;-78
2023/07/24 22:07:58;;;;;;;4.63;3.85;;;;;;;-144.32;100.00;68061.97;10298925;28;20124;-77
2023/07/24 22:12:58;;;;;;;5.43;4.15;;;;;;;-144.32;100.00;68061.97;10284859;28;20052;-78
2023/07/24 22:17:59;;;;;;;5.68;3.95;;;;;;;-144.32;100.00;68061.97;10307573;28;20137;-79
2023/07/24 22:22:59;;;;;;;4.75;3.22;;;;;;;-144.32;100.00;68061.97;10301749;28;20046;-80
2023/07/24 22:28:00;;;;;;;6.25;4.80;;;;;;;-144.32;100.00;68061.97;10311605;28;20057;-78